Terminal Aerodrome Forecast
Issued by NWS

Home | Current Version | Previous Version | Text Only | Print | Product List | Glossary On
Versions: 1 2 3 4 5 6 7 8 9 10 11 12 13 14 15 16
417
FTUS43 KMPX 080813 AAA
TAFRNH
TAF AMD
KRNH 080813Z 0808/0906 28011KT 4SM -SN OVC020
     FM081600 32014G21KT 6SM -SN OVC025
     FM090000 31010KT P6SM BKN025=

USA.gov is the U.S. government's official web portal to all federal, state and local government web resources and services.